createdAt,value
2023-03-24T00:00:26.313Z,1.70
2023-03-24T00:02:53.242Z,1.73
2023-03-24T00:05:22.185Z,1.50
2023-03-24T00:07:54.329Z,1.77
2023-03-24T00:10:23.045Z,1.83
2023-03-24T00:12:51.358Z,2.13
2023-03-24T00:15:21.796Z,2.20
2023-03-24T00:17:52.671Z,2.00
2023-03-24T00:20:22.252Z,1.90
2023-03-24T00:22:56.592Z,2.50
2023-03-24T00:25:29.430Z,2.17
2023-03-24T00:27:57.924Z,2.37
2023-03-24T00:30:26.112Z,2.07
2023-03-24T00:32:53.788Z,2.07
2023-03-24T00:35:20.972Z,2.57
2023-03-24T00:37:49.981Z,2.23
2023-03-24T00:40:19.181Z,2.27
2023-03-24T00:42:47.713Z,2.47
2023-03-24T00:45:20.645Z,2.33
2023-03-24T00:47:49.983Z,2.00
2023-03-24T00:50:20.603Z,2.00
2023-03-24T00:52:49.109Z,1.93
2023-03-24T00:55:17.057Z,1.77
2023-03-24T00:57:52.030Z,3.13
2023-03-24T01:00:24.297Z,1.83
2023-03-24T01:02:54.892Z,3.50
2023-03-24T01:05:28.338Z,2.90
2023-03-24T01:08:03.612Z,2.00
2023-03-24T01:10:34.958Z,2.23
2023-03-24T01:13:02.733Z,2.03
2023-03-24T01:15:33.472Z,2.37
2023-03-24T01:18:02.457Z,2.30
2023-03-24T01:20:35.501Z,1.93
2023-03-24T01:23:07.865Z,2.00
2023-03-24T01:25:39.927Z,1.80
2023-03-24T01:28:06.953Z,2.07
2023-03-24T01:30:34.421Z,2.23
2023-03-24T01:33:01.641Z,1.97
2023-03-24T01:35:29.579Z,2.47
2023-03-24T01:37:57.566Z,2.60
2023-03-24T01:40:33.780Z,2.00
2023-03-24T01:43:01.241Z,1.97
2023-03-24T01:45:44.523Z,1.90
2023-03-24T01:48:38.597Z,2.20
2023-03-24T01:51:19.603Z,2.20
2023-03-24T01:53:59.993Z,2.10
2023-03-24T01:56:28.516Z,2.37
2023-03-24T01:59:13.666Z,2.00
2023-03-24T02:01:40.648Z,2.40
2023-03-24T02:04:08.901Z,2.40
2023-03-24T02:06:44.062Z,2.37
2023-03-24T02:09:12.517Z,2.63
2023-03-24T02:11:40.770Z,2.60
2023-03-24T02:14:08.541Z,3.00
2023-03-24T02:17:00.174Z,2.47
2023-03-24T02:19:38.613Z,2.80
2023-03-24T02:22:29.675Z,2.77
2023-03-24T02:25:18.163Z,3.17
2023-03-24T02:28:14.488Z,3.47
2023-03-24T02:30:50.320Z,3.40
2023-03-24T02:33:19.923Z,3.60
2023-03-24T02:36:26.269Z,2.97
2023-03-24T02:39:21.158Z,3.30
2023-03-24T02:42:44.666Z,3.57
2023-03-24T02:45:22.967Z,3.67
2023-03-24T02:48:16.141Z,3.40
2023-03-24T02:50:56.640Z,3.10
2023-03-24T02:53:54.591Z,3.33
2023-03-24T02:56:33.521Z,3.53
2023-03-24T02:59:09.984Z,3.20
2023-03-24T03:02:07.933Z,3.10
2023-03-24T03:04:49.873Z,4.00
2023-03-24T03:07:22.101Z,3.13
2023-03-24T03:10:16.238Z,3.27
2023-03-24T03:12:48.605Z,3.33
2023-03-24T03:15:22.033Z,2.83
2023-03-24T03:17:59.144Z,3.50
2023-03-24T03:20:31.064Z,2.90
2023-03-24T03:23:15.219Z,3.50
2023-03-24T03:25:50.356Z,3.40
2023-03-24T03:28:22.265Z,2.80
2023-03-24T03:30:55.923Z,3.90
2023-03-24T03:33:26.712Z,4.37
2023-03-24T03:36:20.769Z,3.77
2023-03-24T03:39:02.688Z,3.83
2023-03-24T03:41:29.653Z,2.70
2023-03-24T03:43:56.706Z,2.30
2023-03-24T03:46:23.874Z,2.20
2023-03-24T03:48:51.188Z,2.00
2023-03-24T03:51:18.505Z,1.90
2023-03-24T03:53:52.591Z,2.00
2023-03-24T03:56:22.886Z,2.00
2023-03-24T03:58:50.260Z,2.30
2023-03-24T04:01:21.165Z,2.00
2023-03-24T04:04:12.269Z,2.27
2023-03-24T04:07:20.175Z,2.40
2023-03-24T04:10:12.115Z,2.43
2023-03-24T04:12:47.961Z,2.53
2023-03-24T04:15:23.839Z,1.93
2023-03-24T04:18:18.707Z,2.00
2023-03-24T04:20:56.853Z,1.83
2023-03-24T04:23:26.377Z,1.70
2023-03-24T04:26:17.678Z,1.93
2023-03-24T04:29:09.916Z,2.43
2023-03-24T04:31:53.340Z,2.10
2023-03-24T04:34:21.559Z,2.80
2023-03-24T04:37:02.876Z,3.13
2023-03-24T04:39:31.989Z,2.80
2023-03-24T04:42:06.292Z,2.70
2023-03-24T04:44:34.199Z,2.77
2023-03-24T04:47:03.062Z,3.70
2023-03-24T04:49:30.029Z,2.30
2023-03-24T04:51:56.826Z,2.60
2023-03-24T04:54:23.898Z,3.33
2023-03-24T04:56:53.526Z,3.07
2023-03-24T04:59:21.334Z,4.00
2023-03-24T05:01:50.789Z,2.33
2023-03-24T05:04:26.134Z,1.00
2023-03-24T05:06:53.064Z,1.17
2023-03-24T05:09:22.383Z,1.37
2023-03-24T05:11:49.520Z,1.40
2023-03-24T05:14:16.965Z,1.57
2023-03-24T05:16:44.163Z,1.67
2023-03-24T05:19:11.676Z,1.40
2023-03-24T05:21:38.716Z,1.40
2023-03-24T05:24:06.831Z,2.00
2023-03-24T05:26:35.536Z,2.20
2023-03-24T05:29:02.400Z,1.67
2023-03-24T05:31:29.180Z,1.83
2023-03-24T05:33:56.604Z,2.03
2023-03-24T05:36:23.542Z,2.00
2023-03-24T05:38:50.454Z,1.63
2023-03-24T05:41:17.261Z,1.70
2023-03-24T05:43:44.067Z,1.40
2023-03-24T05:46:11.042Z,1.50
2023-03-24T05:48:37.854Z,1.30
2023-03-24T05:51:07.948Z,1.80
2023-03-24T05:53:37.735Z,1.67
2023-03-24T05:56:06.127Z,1.70
2023-03-24T05:58:34.686Z,1.60
2023-03-24T06:01:07.688Z,1.80
2023-03-24T06:03:34.928Z,1.73
2023-03-24T06:06:01.843Z,1.77
2023-03-24T06:08:28.637Z,1.80
2023-03-24T06:11:00.787Z,1.70
2023-03-24T06:13:27.618Z,1.60
2023-03-24T06:15:54.765Z,1.30
2023-03-24T06:18:24.162Z,1.50
2023-03-24T06:20:50.960Z,1.50
2023-03-24T06:23:18.029Z,1.93
2023-03-24T06:25:45.165Z,2.30
2023-03-24T06:28:12.337Z,1.90
2023-03-24T06:30:40.542Z,1.97
2023-03-24T06:33:08.474Z,2.07
2023-03-24T06:35:38.513Z,1.53
2023-03-24T06:38:08.276Z,2.43
2023-03-24T06:40:37.331Z,2.67
2023-03-24T06:43:04.419Z,1.77
2023-03-24T06:45:31.378Z,1.77
2023-03-24T06:47:58.341Z,2.77
2023-03-24T06:50:27.001Z,2.10
2023-03-24T06:52:54.083Z,2.03
2023-03-24T06:55:22.231Z,1.77
2023-03-24T06:57:49.092Z,2.13
2023-03-24T07:00:16.202Z,2.60
2023-03-24T07:02:43.114Z,2.87
2023-03-24T07:05:11.097Z,1.77
2023-03-24T07:08:16.922Z,1.83
2023-03-24T07:10:25.118Z,1.80
2023-03-24T07:12:51.907Z,2.10
2023-03-24T07:15:18.697Z,1.30
2023-03-24T07:17:45.767Z,2.20
2023-03-24T07:20:12.708Z,1.53
2023-03-24T07:22:39.525Z,2.60
2023-03-24T07:25:07.211Z,2.33
2023-03-24T07:27:35.425Z,2.53
2023-03-24T07:30:02.730Z,2.23
2023-03-24T07:32:37.449Z,2.40
2023-03-24T07:35:05.583Z,2.20
2023-03-24T07:37:32.371Z,2.20
2023-03-24T07:39:59.128Z,1.63
2023-03-24T07:42:25.934Z,1.47
2023-03-24T07:44:52.752Z,2.40
2023-03-24T07:47:19.557Z,1.77
2023-03-24T07:49:46.847Z,2.33
2023-03-24T07:52:13.758Z,1.77
2023-03-24T07:54:40.800Z,1.50
2023-03-24T07:57:10.434Z,1.83
2023-03-24T07:59:38.027Z,1.80
2023-03-24T08:02:05.480Z,2.00
2023-03-24T08:04:33.444Z,2.20
2023-03-24T08:07:00.607Z,1.70
2023-03-24T08:09:27.843Z,2.77
2023-03-24T08:11:54.709Z,2.20
2023-03-24T08:14:21.874Z,2.03
2023-03-24T08:16:49.149Z,1.77
2023-03-24T08:19:16.142Z,2.03
2023-03-24T08:21:42.984Z,2.00
2023-03-24T08:24:09.898Z,2.00
2023-03-24T08:26:36.747Z,3.70
2023-03-24T08:29:03.985Z,4.40
2023-03-24T08:31:38.076Z,3.10
2023-03-24T08:34:07.905Z,2.60
2023-03-24T08:36:37.727Z,2.13
2023-03-24T08:39:07.967Z,2.07
2023-03-24T08:41:35.875Z,2.70
2023-03-24T08:44:06.709Z,2.30
2023-03-24T08:46:36.706Z,2.47
2023-03-24T08:49:05.826Z,2.50
2023-03-24T08:51:33.199Z,2.00
2023-03-24T08:54:01.484Z,2.30
2023-03-24T08:56:28.398Z,2.20
2023-03-24T08:58:55.273Z,1.93
2023-03-24T09:01:22.991Z,2.83
2023-03-24T09:03:50.097Z,2.17
2023-03-24T09:06:17.746Z,2.60
2023-03-24T09:08:44.573Z,3.10
2023-03-24T09:11:20.368Z,3.27
2023-03-24T09:13:47.718Z,2.77
2023-03-24T09:16:15.649Z,2.50
2023-03-24T09:18:42.863Z,2.17
2023-03-24T09:21:09.765Z,3.20
2023-03-24T09:23:36.794Z,2.27
2023-03-24T09:26:06.448Z,2.07
2023-03-24T09:28:33.936Z,2.70
2023-03-24T09:31:03.164Z,2.03
2023-03-24T09:33:31.156Z,2.73
2023-03-24T09:36:00.433Z,2.30
2023-03-24T09:38:28.437Z,2.00
2023-03-24T09:41:03.205Z,2.23
2023-03-24T09:43:52.336Z,2.00
2023-03-24T09:46:43.180Z,2.73
2023-03-24T09:49:16.715Z,1.87
2023-03-24T09:51:45.640Z,1.97
2023-03-24T09:54:22.679Z,2.03
2023-03-24T09:56:51.700Z,2.27
2023-03-24T09:59:26.271Z,1.60
2023-03-24T10:01:53.132Z,2.07
2023-03-24T10:04:24.352Z,1.90
2023-03-24T10:07:19.406Z,2.13
2023-03-24T10:09:53.475Z,2.73
2023-03-24T10:12:33.460Z,2.33
2023-03-24T10:15:12.566Z,2.40
2023-03-24T10:17:48.656Z,2.70
2023-03-24T10:20:32.730Z,2.57
2023-03-24T10:23:24.233Z,1.90
2023-03-24T10:26:12.862Z,2.07
2023-03-24T10:29:06.121Z,1.57
2023-03-24T10:31:35.905Z,1.90
2023-03-24T10:34:03.171Z,1.73
2023-03-24T10:36:30.965Z,2.47
2023-03-24T10:39:00.117Z,1.80
2023-03-24T10:41:32.673Z,2.27
2023-03-24T10:44:02.295Z,1.80
2023-03-24T10:46:32.086Z,1.50
2023-03-24T10:49:28.360Z,2.73
2023-03-24T10:52:03.672Z,2.00
2023-03-24T10:54:31.889Z,1.80
2023-03-24T10:57:02.593Z,1.73
2023-03-24T10:59:59.304Z,1.80
2023-03-24T11:02:37.921Z,1.33
2023-03-24T11:05:15.792Z,1.98
2023-03-24T11:07:46.584Z,2.43
2023-03-24T11:10:18.868Z,2.30
2023-03-24T11:12:48.910Z,1.85
2023-03-24T11:15:22.368Z,1.65
2023-03-24T11:17:56.864Z,2.72
2023-03-24T11:20:37.488Z,2.28
2023-03-24T11:23:44.668Z,2.20
2023-03-24T11:26:24.766Z,2.72
2023-03-24T11:28:53.258Z,2.38
2023-03-24T11:31:25.323Z,2.35
2023-03-24T11:33:57.870Z,2.20
2023-03-24T11:36:31.140Z,2.35
2023-03-24T11:39:11.911Z,1.73
2023-03-24T11:41:41.157Z,2.47
2023-03-24T11:44:19.490Z,1.98
2023-03-24T11:46:48.907Z,2.15
2023-03-24T11:49:18.958Z,2.03
2023-03-24T11:51:47.920Z,2.17
2023-03-24T11:54:16.629Z,2.88
2023-03-24T11:56:45.823Z,1.85
2023-03-24T11:59:25.407Z,1.45
2023-03-24T12:01:58.991Z,2.33
2023-03-24T12:04:44.780Z,2.08
2023-03-24T12:07:22.733Z,2.30
2023-03-24T12:09:49.868Z,1.85
2023-03-24T12:12:29.403Z,2.00
2023-03-24T12:15:27.203Z,2.42
2023-03-24T12:18:21.125Z,1.83
2023-03-24T12:20:56.938Z,1.98
2023-03-24T12:23:36.977Z,2.33
2023-03-24T12:26:10.725Z,2.85
2023-03-24T12:28:57.696Z,2.45
2023-03-24T12:31:45.300Z,2.85
2023-03-24T12:34:13.017Z,3.53
2023-03-24T12:36:40.236Z,2.15
2023-03-24T12:39:10.630Z,1.88
2023-03-24T12:41:43.879Z,1.50
2023-03-24T12:44:14.116Z,1.77
2023-03-24T12:46:47.670Z,2.13
2023-03-24T12:49:54.284Z,1.90
2023-03-24T12:52:41.717Z,2.17
2023-03-24T12:55:14.900Z,2.72
2023-03-24T12:57:44.235Z,2.80
2023-03-24T13:00:23.278Z,2.88
2023-03-24T13:02:56.168Z,1.98
2023-03-24T13:05:27.913Z,2.35
2023-03-24T13:07:58.462Z,1.88
2023-03-24T13:10:40.365Z,2.13
2023-03-24T13:13:28.951Z,1.70
2023-03-24T13:15:58.122Z,2.35
2023-03-24T13:19:02.265Z,2.08
2023-03-24T13:21:31.813Z,1.88
2023-03-24T13:24:01.593Z,2.08
2023-03-24T13:26:28.738Z,2.92
2023-03-24T13:28:58.971Z,2.90
2023-03-24T13:31:27.444Z,2.10
2023-03-24T13:33:55.358Z,2.35
2023-03-24T13:36:31.850Z,1.80
2023-03-24T13:39:02.012Z,1.67
2023-03-24T13:41:33.124Z,2.38
2023-03-24T13:44:06.987Z,1.63
2023-03-24T13:46:37.030Z,2.10
2023-03-24T13:49:06.237Z,2.72
2023-03-24T13:51:35.328Z,1.80
2023-03-24T13:54:17.274Z,2.90
2023-03-24T13:56:55.671Z,1.50
2023-03-24T13:59:26.001Z,1.60
2023-03-24T14:02:11.487Z,1.92
2023-03-24T14:04:50.742Z,1.98
2023-03-24T14:07:31.483Z,1.00
2023-03-24T14:10:00.449Z,1.08
2023-03-24T14:12:27.723Z,1.17
2023-03-24T14:15:14.005Z,1.00
2023-03-24T14:17:43.913Z,1.17
2023-03-24T14:20:13.342Z,1.15
2023-03-24T14:22:41.660Z,0.93
2023-03-24T14:25:09.021Z,0.70
2023-03-24T14:27:42.731Z,1.50
2023-03-24T14:30:24.911Z,0.80
2023-03-24T14:33:02.624Z,0.80
2023-03-24T14:35:49.129Z,1.13
2023-03-24T14:38:16.450Z,1.23
2023-03-24T14:40:50.910Z,1.42
2023-03-24T14:43:30.062Z,1.48
2023-03-24T14:46:01.899Z,4.15
2023-03-24T14:48:39.377Z,3.60
2023-03-24T14:51:25.298Z,4.05
2023-03-24T14:53:53.451Z,3.72
2023-03-24T14:56:21.326Z,4.05
2023-03-24T14:58:51.305Z,4.07
2023-03-24T15:01:18.642Z,3.58
2023-03-24T15:04:08.199Z,3.47
2023-03-24T15:06:44.625Z,1.65
2023-03-24T15:09:11.907Z,2.03
2023-03-24T15:11:40.159Z,1.70
2023-03-24T15:14:07.945Z,2.30
2023-03-24T15:16:36.440Z,1.30
2023-03-24T15:19:18.918Z,1.80
2023-03-24T15:21:50.367Z,2.05
2023-03-24T15:24:23.668Z,4.53
2023-03-24T15:26:52.579Z,3.60
2023-03-24T15:29:19.770Z,3.83
2023-03-24T15:31:47.185Z,3.65
2023-03-24T15:34:31.434Z,5.17
2023-03-24T15:37:00.002Z,4.83
2023-03-24T15:39:28.446Z,5.37
2023-03-24T15:41:56.028Z,2.87
2023-03-24T15:44:26.162Z,2.77
2023-03-24T15:46:55.898Z,1.60
2023-03-24T15:49:26.025Z,1.70
2023-03-24T15:51:56.420Z,1.80
2023-03-24T15:54:25.033Z,2.80
2023-03-24T15:57:06.747Z,1.83
2023-03-24T15:59:37.513Z,1.70
2023-03-24T16:02:06.669Z,1.90
2023-03-24T16:04:34.421Z,1.63
2023-03-24T16:07:01.678Z,1.50
2023-03-24T16:09:37.999Z,1.33
2023-03-24T16:12:10.285Z,1.90
2023-03-24T16:14:38.966Z,1.73
2023-03-24T16:17:09.708Z,1.73
2023-03-24T16:19:37.800Z,1.80
2023-03-24T16:22:09.895Z,1.70
2023-03-24T16:24:37.024Z,2.43
2023-03-24T16:27:04.356Z,2.30
2023-03-24T16:29:31.615Z,1.60
2023-03-24T16:31:58.888Z,1.23
2023-03-24T16:34:26.079Z,1.53
2023-03-24T16:36:54.353Z,1.90
2023-03-24T16:39:22.992Z,2.28
2023-03-24T16:41:50.243Z,2.33
2023-03-24T16:44:17.516Z,1.90
2023-03-24T16:46:46.615Z,1.63
2023-03-24T16:49:15.511Z,1.00
2023-03-24T16:51:42.868Z,0.97
2023-03-24T16:54:10.313Z,1.33
2023-03-24T16:56:38.435Z,2.67
2023-03-24T16:59:06.503Z,2.33
2023-03-24T17:01:38.406Z,1.67
2023-03-24T17:04:11.949Z,2.83
2023-03-24T17:06:41.630Z,1.30
2023-03-24T17:09:10.020Z,1.27
2023-03-24T17:11:38.554Z,1.20
2023-03-24T17:14:08.511Z,1.33
2023-03-24T17:16:37.080Z,1.50
2023-03-24T17:19:07.281Z,1.60
2023-03-24T17:21:35.701Z,2.57
2023-03-24T17:24:03.465Z,2.30
2023-03-24T17:26:31.973Z,1.50
2023-03-24T17:28:59.476Z,1.90
2023-03-24T17:31:27.343Z,2.33
2023-03-24T17:33:54.553Z,2.20
2023-03-24T17:36:21.722Z,2.20
2023-03-24T17:38:49.018Z,2.47
2023-03-24T17:41:16.299Z,2.00
2023-03-24T17:43:45.819Z,5.90
2023-03-24T17:46:13.104Z,1.50
2023-03-24T17:48:40.488Z,1.80
2023-03-24T17:51:07.872Z,1.60
2023-03-24T17:53:37.850Z,1.27
2023-03-24T17:56:08.541Z,1.70
2023-03-24T17:58:36.604Z,1.20
2023-03-24T18:01:08.791Z,1.53
2023-03-24T18:03:38.202Z,1.60
2023-03-24T18:06:16.735Z,1.70
2023-03-24T18:08:43.974Z,3.40
2023-03-24T18:11:12.772Z,2.57
2023-03-24T18:13:40.513Z,3.07
2023-03-24T18:16:19.871Z,2.70
2023-03-24T18:18:48.623Z,2.57
2023-03-24T18:21:16.044Z,2.30
2023-03-24T18:23:43.309Z,1.10
2023-03-24T18:26:10.792Z,1.43
2023-03-24T18:28:38.870Z,1.13
2023-03-24T18:31:12.878Z,1.57
2023-03-24T18:33:42.889Z,1.27
2023-03-24T18:36:10.628Z,2.57
2023-03-24T18:38:37.959Z,1.53
2023-03-24T18:41:06.630Z,1.20
2023-03-24T18:43:45.120Z,1.70
2023-03-24T18:46:12.277Z,1.50
2023-03-24T18:48:40.193Z,1.33
2023-03-24T18:51:07.618Z,1.50
2023-03-24T18:53:35.040Z,1.13
2023-03-24T18:56:02.266Z,1.50
2023-03-24T18:58:29.726Z,1.33
2023-03-24T19:00:58.039Z,1.40
2023-03-24T19:03:29.396Z,1.40
2023-03-24T19:06:01.247Z,1.20
2023-03-24T19:08:28.565Z,1.30
2023-03-24T19:10:56.080Z,1.60
2023-03-24T19:13:23.366Z,1.57
2023-03-24T19:15:55.291Z,2.10
2023-03-24T19:18:23.440Z,2.40
2023-03-24T19:20:52.828Z,1.10
2023-03-24T19:23:20.574Z,1.93
2023-03-24T19:25:47.993Z,1.80
2023-03-24T19:28:16.484Z,1.33
2023-03-24T19:30:43.699Z,1.70
2023-03-24T19:33:12.953Z,1.57
2023-03-24T19:35:40.615Z,1.43
2023-03-24T19:38:07.948Z,2.43
2023-03-24T19:40:35.438Z,1.80
2023-03-24T19:43:02.680Z,1.70
2023-03-24T19:45:29.924Z,2.20
2023-03-24T19:47:57.263Z,2.30
2023-03-24T19:50:24.503Z,2.47
2023-03-24T19:52:51.985Z,3.00
2023-03-24T19:55:19.479Z,2.53
2023-03-24T19:57:46.694Z,2.93
2023-03-24T20:00:14.684Z,2.90
2023-03-24T20:02:41.991Z,3.00
2023-03-24T20:05:09.878Z,2.03
2023-03-24T20:07:37.570Z,1.40
2023-03-24T20:10:07.901Z,2.40
2023-03-24T20:12:37.856Z,2.40
2023-03-24T20:15:08.283Z,2.70
2023-03-24T20:17:37.662Z,3.63
2023-03-24T20:20:07.419Z,3.27
2023-03-24T20:22:41.942Z,3.00
2023-03-24T20:25:10.319Z,3.00
2023-03-24T20:27:37.689Z,2.80
2023-03-24T20:30:05.936Z,1.97
2023-03-24T20:32:33.209Z,2.03
2023-03-24T20:35:00.554Z,2.07
2023-03-24T20:37:29.284Z,1.60
2023-03-24T20:39:56.478Z,1.27
2023-03-24T20:42:24.555Z,1.37
2023-03-24T20:44:51.894Z,3.87
2023-03-24T20:47:19.553Z,1.90
2023-03-24T20:49:47.066Z,2.57
2023-03-24T20:52:15.572Z,2.47
2023-03-24T20:54:42.799Z,2.20
2023-03-24T20:57:09.993Z,2.10
2023-03-24T20:59:40.106Z,1.57
2023-03-24T21:02:09.998Z,1.20
2023-03-24T21:04:37.258Z,1.30
2023-03-24T21:07:04.547Z,1.20
2023-03-24T21:09:33.187Z,1.33
2023-03-24T21:12:01.782Z,1.20
2023-03-24T21:14:30.060Z,2.63
2023-03-24T21:16:57.409Z,1.80
2023-03-24T21:19:24.720Z,2.00
2023-03-24T21:21:51.917Z,1.73
2023-03-24T21:24:19.136Z,2.20
2023-03-24T21:26:49.380Z,2.97
2023-03-24T21:29:16.689Z,2.27
2023-03-24T21:31:44.035Z,2.60
2023-03-24T21:34:11.400Z,3.10
2023-03-24T21:36:38.718Z,4.20
2023-03-24T21:39:10.249Z,3.63
2023-03-24T21:41:39.007Z,3.30
2023-03-24T21:44:07.910Z,2.27
2023-03-24T21:46:35.622Z,2.30
2023-03-24T21:49:03.102Z,2.30
2023-03-24T21:51:36.693Z,1.90
2023-03-24T21:54:06.281Z,1.27
2023-03-24T21:56:34.401Z,1.57
2023-03-24T21:59:01.806Z,1.20
2023-03-24T22:01:29.276Z,1.47
2023-03-24T22:03:58.803Z,1.40
2023-03-24T22:06:29.183Z,2.10
2023-03-24T22:08:58.514Z,1.50
2023-03-24T22:11:26.080Z,2.73
2023-03-24T22:13:53.874Z,2.03
2023-03-24T22:16:21.146Z,2.30
2023-03-24T22:18:48.346Z,2.50
2023-03-24T22:21:15.680Z,2.33
2023-03-24T22:23:43.447Z,1.80
2023-03-24T22:26:12.397Z,1.87
2023-03-24T22:28:40.036Z,1.37
2023-03-24T22:31:08.793Z,1.00
2023-03-24T22:33:36.267Z,1.20
2023-03-24T22:36:03.848Z,0.90
2023-03-24T22:38:31.606Z,1.23
2023-03-24T22:41:09.901Z,0.80
2023-03-24T22:43:41.962Z,0.87
2023-03-24T22:46:10.536Z,0.80
2023-03-24T22:48:41.110Z,1.13
2023-03-24T22:51:09.293Z,1.13
2023-03-24T22:53:36.464Z,1.03
2023-03-24T22:56:06.054Z,1.10
2023-03-24T22:58:35.548Z,1.23
2023-03-24T23:01:03.940Z,1.00
2023-03-24T23:03:31.432Z,1.07
2023-03-24T23:06:02.084Z,1.00
2023-03-24T23:08:30.145Z,1.13
2023-03-24T23:10:58.028Z,0.90
2023-03-24T23:13:26.267Z,0.90
2023-03-24T23:15:53.897Z,1.77
2023-03-24T23:18:21.431Z,1.27
2023-03-24T23:20:49.108Z,1.40
2023-03-24T23:23:16.716Z,1.50
2023-03-24T23:25:45.768Z,1.40
2023-03-24T23:28:13.552Z,1.00
2023-03-24T23:30:41.357Z,1.50
2023-03-24T23:33:08.673Z,1.10
2023-03-24T23:35:39.107Z,1.40
2023-03-24T23:38:06.790Z,1.20
2023-03-24T23:40:34.203Z,1.10
2023-03-24T23:43:02.347Z,1.27
2023-03-24T23:45:29.210Z,3.47
2023-03-24T23:47:56.614Z,1.60
2023-03-24T23:50:23.603Z,1.00
2023-03-24T23:52:50.400Z,1.20
2023-03-24T23:55:18.202Z,0.80
2023-03-24T23:57:46.437Z,1.03
